DHK479 EGKK-EHAM
Flight info
| Callsign | DHK479 |
|---|---|
| Flight time | 0h 42m |
| Altitude | 29000 |
| Route | FRANE M604 GASBA M197 REDFA |
| Aircraft | A333/H-SDE3GHIJ2J3J5M1RVWXY/LB2D1 |
Departure
| Time | 2026-04-18 10:08 |
|---|---|
| Airport | London Gatwick Airport (EGKK) |
Arrival
| Time | 2026-04-18 10:51 |
|---|---|
| Airport | Amsterdam Airport Schiphol (EHAM) |
| Time | Latitude | Longitude | Altitude | Speed | Heading |
|---|---|---|---|---|---|
| 2026-04-18 09:47 | 51.15537 | -0.18580 | 216 ft | 0 kts | 168° |
| 2026-04-18 09:58 | 51.15539 | -0.18580 | 209 ft | 2 kts | 167° |
| 2026-04-18 09:58 | 51.15553 | -0.18585 | 218 ft | 0 kts | 168° |
| 2026-04-18 09:58 | 51.15566 | -0.18590 | 212 ft | 2 kts | 167° |
| 2026-04-18 09:59 | 51.15582 | -0.18596 | 220 ft | 2 kts | 166° |
| 2026-04-18 09:59 | 51.15598 | -0.18604 | 218 ft | 2 kts | 148° |
| 2026-04-18 09:59 | 51.15610 | -0.18621 | 223 ft | 2 kts | 81° |
| 2026-04-18 10:00 | 51.15607 | -0.18643 | 209 ft | 0 kts | 77° |
| 2026-04-18 10:01 | 51.15608 | -0.18631 | 216 ft | 5 kts | 77° |
| 2026-04-18 10:01 | 51.15619 | -0.18555 | 221 ft | 9 kts | 77° |
| 2026-04-18 10:02 | 51.15634 | -0.18439 | 218 ft | 13 kts | 80° |
| 2026-04-18 10:02 | 51.15583 | -0.18349 | 216 ft | 13 kts | 164° |
| 2026-04-18 10:02 | 51.15487 | -0.18312 | 217 ft | 15 kts | 169° |
| 2026-04-18 10:02 | 51.15375 | -0.18276 | 219 ft | 18 kts | 167° |
| 2026-04-18 10:03 | 51.15253 | -0.18231 | 214 ft | 16 kts | 164° |
| 2026-04-18 10:03 | 51.15206 | -0.18143 | 217 ft | 8 kts | 93° |
| 2026-04-18 10:03 | 51.15222 | -0.18028 | 220 ft | 13 kts | 77° |
| 2026-04-18 10:03 | 51.15248 | -0.17868 | 212 ft | 15 kts | 74° |
| 2026-04-18 10:04 | 51.15271 | -0.17691 | 216 ft | 18 kts | 78° |
| 2026-04-18 10:04 | 51.15296 | -0.17485 | 214 ft | 20 kts | 82° |
| 2026-04-18 10:04 | 51.15311 | -0.17295 | 215 ft | 16 kts | 87° |
| 2026-04-18 10:04 | 51.15250 | -0.17180 | 218 ft | 13 kts | 143° |
| 2026-04-18 10:05 | 51.15210 | -0.17084 | 211 ft | 10 kts | 95° |
| 2026-04-18 10:05 | 51.15217 | -0.16956 | 219 ft | 6 kts | 77° |
| 2026-04-18 10:05 | 51.15217 | -0.16955 | 219 ft | 0 kts | 78° |
| 2026-04-18 10:06 | 51.15218 | -0.16949 | 218 ft | 5 kts | 78° |
| 2026-04-18 10:06 | 51.15190 | -0.16811 | 220 ft | 16 kts | 150° |
| 2026-04-18 10:06 | 51.15126 | -0.16836 | 218 ft | 16 kts | 231° |
| 2026-04-18 10:07 | 51.15102 | -0.16958 | 216 ft | 0 kts | 259° |
| 2026-04-18 10:07 | 51.15100 | -0.16974 | 221 ft | 9 kts | 258° |
| 2026-04-18 10:07 | 51.14988 | -0.17780 | 218 ft | 104 kts | 258° |
| 2026-04-18 10:08 | 51.14778 | -0.19250 | 295 ft | 160 kts | 253° |
| 2026-04-18 10:08 | 51.14567 | -0.20388 | 884 ft | 159 kts | 253° |
| 2026-04-18 10:08 | 51.14233 | -0.22071 | 1733 ft | 165 kts | 259° |
| 2026-04-18 10:08 | 51.13987 | -0.24033 | 2183 ft | 196 kts | 262° |
| 2026-04-18 10:09 | 51.13736 | -0.26280 | 2918 ft | 212 kts | 264° |
| 2026-04-18 10:09 | 51.13734 | -0.28636 | 3611 ft | 213 kts | 282° |
| 2026-04-18 10:09 | 51.14354 | -0.30748 | 3928 ft | 213 kts | 308° |
| 2026-04-18 10:09 | 51.15560 | -0.32122 | 4007 ft | 220 kts | 337° |
| 2026-04-18 10:10 | 51.17103 | -0.32298 | 4470 ft | 230 kts | 8° |
| 2026-04-18 10:10 | 51.18556 | -0.31143 | 5437 ft | 242 kts | 39° |
| 2026-04-18 10:10 | 51.19459 | -0.28912 | 6384 ft | 248 kts | 69° |
| 2026-04-18 10:10 | 51.19893 | -0.26212 | 7270 ft | 256 kts | 78° |
| 2026-04-18 10:11 | 51.20230 | -0.23387 | 8232 ft | 262 kts | 79° |
| 2026-04-18 10:11 | 51.20570 | -0.20498 | 9230 ft | 269 kts | 79° |
| 2026-04-18 10:11 | 51.21081 | -0.17507 | 9806 ft | 293 kts | 63° |
| 2026-04-18 10:11 | 51.22358 | -0.14901 | 10424 ft | 306 kts | 38° |
| 2026-04-18 10:12 | 51.24080 | -0.12837 | 11247 ft | 312 kts | 31° |
| 2026-04-18 10:12 | 51.25887 | -0.10855 | 12125 ft | 319 kts | 31° |
| 2026-04-18 10:12 | 51.27734 | -0.08831 | 12971 ft | 325 kts | 31° |
| 2026-04-18 10:12 | 51.29612 | -0.06763 | 13836 ft | 332 kts | 31° |
| 2026-04-18 10:13 | 51.31524 | -0.04640 | 14639 ft | 338 kts | 31° |
| 2026-04-18 10:13 | 51.33468 | -0.02472 | 15442 ft | 342 kts | 31° |
| 2026-04-18 10:13 | 51.35424 | -0.00245 | 16162 ft | 352 kts | 35° |
| 2026-04-18 10:13 | 51.37302 | 0.02445 | 16502 ft | 374 kts | 40° |
| 2026-04-18 10:14 | 51.39221 | 0.05420 | 16796 ft | 395 kts | 42° |
| 2026-04-18 10:14 | 51.41189 | 0.08648 | 17147 ft | 413 kts | 44° |
| 2026-04-18 10:14 | 51.43185 | 0.12032 | 17732 ft | 422 kts | 45° |
| 2026-04-18 10:14 | 51.45199 | 0.15499 | 18450 ft | 428 kts | 45° |
| 2026-04-18 10:15 | 51.47236 | 0.19017 | 19068 ft | 433 kts | 45° |
| 2026-04-18 10:15 | 51.49301 | 0.22578 | 19718 ft | 437 kts | 45° |
| 2026-04-18 10:15 | 51.51386 | 0.26162 | 20355 ft | 442 kts | 44° |
| 2026-04-18 10:15 | 51.53494 | 0.29779 | 20963 ft | 446 kts | 44° |
| 2026-04-18 10:16 | 51.55598 | 0.33384 | 21583 ft | 450 kts | 44° |
| 2026-04-18 10:16 | 51.57726 | 0.37033 | 22179 ft | 454 kts | 44° |
| 2026-04-18 10:16 | 51.59898 | 0.40759 | 22725 ft | 460 kts | 44° |
| 2026-04-18 10:16 | 51.62080 | 0.44508 | 23312 ft | 464 kts | 44° |
| 2026-04-18 10:17 | 51.64296 | 0.48323 | 23851 ft | 468 kts | 44° |
| 2026-04-18 10:17 | 51.66519 | 0.52156 | 24362 ft | 470 kts | 44° |
| 2026-04-18 10:17 | 51.68764 | 0.56035 | 24847 ft | 474 kts | 44° |
| 2026-04-18 10:17 | 51.71014 | 0.59928 | 25320 ft | 477 kts | 44° |
| 2026-04-18 10:18 | 51.73247 | 0.63798 | 25785 ft | 480 kts | 44° |
| 2026-04-18 10:18 | 51.75531 | 0.67761 | 26262 ft | 483 kts | 44° |
| 2026-04-18 10:18 | 51.77825 | 0.71750 | 26743 ft | 487 kts | 44° |
| 2026-04-18 10:18 | 51.80136 | 0.75773 | 27209 ft | 490 kts | 44° |
| 2026-04-18 10:19 | 51.82533 | 0.79700 | 27674 ft | 493 kts | 40° |
| 2026-04-18 10:19 | 51.84849 | 0.83825 | 28080 ft | 500 kts | 52° |
| 2026-04-18 10:19 | 51.86668 | 0.88657 | 28546 ft | 505 kts | 64° |
| 2026-04-18 10:19 | 51.87890 | 0.93998 | 29002 ft | 508 kts | 77° |
| 2026-04-18 10:20 | 51.88430 | 0.99484 | 29184 ft | 508 kts | 89° |
| 2026-04-18 10:20 | 51.89188 | 1.10867 | 29222 ft | 511 kts | 78° |
| 2026-04-18 10:21 | 51.90942 | 1.22019 | 29219 ft | 512 kts | 75° |
| 2026-04-18 10:21 | 51.92909 | 1.33108 | 29219 ft | 512 kts | 74° |
| 2026-04-18 10:22 | 51.94906 | 1.44179 | 29221 ft | 512 kts | 75° |
| 2026-04-18 10:22 | 51.96874 | 1.55258 | 29227 ft | 511 kts | 75° |
| 2026-04-18 10:23 | 51.98821 | 1.66331 | 29211 ft | 510 kts | 75° |
| 2026-04-18 10:23 | 52.00594 | 1.77355 | 29214 ft | 510 kts | 77° |
| 2026-04-18 10:24 | 52.02317 | 1.88518 | 29218 ft | 510 kts | 77° |
| 2026-04-18 10:24 | 52.04031 | 1.99675 | 28983 ft | 506 kts | 77° |
| 2026-04-18 10:24 | 52.04866 | 2.05128 | 28361 ft | 501 kts | 77° |
| 2026-04-18 10:25 | 52.05699 | 2.10578 | 27797 ft | 494 kts | 77° |
| 2026-04-18 10:25 | 52.06523 | 2.15974 | 27201 ft | 489 kts | 77° |
| 2026-04-18 10:25 | 52.07334 | 2.21310 | 26603 ft | 485 kts | 77° |
| 2026-04-18 10:25 | 52.08138 | 2.26615 | 26012 ft | 480 kts | 77° |
| 2026-04-18 10:26 | 52.08931 | 2.31864 | 25428 ft | 476 kts | 77° |
| 2026-04-18 10:26 | 52.09714 | 2.37075 | 24861 ft | 472 kts | 77° |
| 2026-04-18 10:26 | 52.10488 | 2.42230 | 24296 ft | 468 kts | 78° |
| 2026-04-18 10:26 | 52.11313 | 2.47322 | 23702 ft | 464 kts | 72° |
| 2026-04-18 10:27 | 52.12655 | 2.52062 | 23296 ft | 459 kts | 60° |
| 2026-04-18 10:27 | 52.14249 | 2.56557 | 23215 ft | 459 kts | 59° |
| 2026-04-18 10:27 | 52.15877 | 2.61023 | 22852 ft | 456 kts | 58° |
| 2026-04-18 10:27 | 52.17492 | 2.65455 | 22149 ft | 454 kts | 59° |
| 2026-04-18 10:28 | 52.19089 | 2.69853 | 21561 ft | 448 kts | 59° |
| 2026-04-18 10:28 | 52.20663 | 2.74205 | 20977 ft | 444 kts | 59° |
| 2026-04-18 10:28 | 52.22219 | 2.78521 | 20384 ft | 439 kts | 59° |
| 2026-04-18 10:28 | 52.23759 | 2.82802 | 19795 ft | 435 kts | 59° |
| 2026-04-18 10:29 | 52.25280 | 2.87042 | 19243 ft | 431 kts | 59° |
| 2026-04-18 10:29 | 52.26791 | 2.91259 | 18613 ft | 429 kts | 60° |
| 2026-04-18 10:29 | 52.28291 | 2.95454 | 17978 ft | 425 kts | 60° |
| 2026-04-18 10:29 | 52.29752 | 2.99548 | 17436 ft | 418 kts | 59° |
| 2026-04-18 10:30 | 52.31203 | 3.03621 | 16884 ft | 412 kts | 60° |
| 2026-04-18 10:30 | 52.32639 | 3.07655 | 16240 ft | 409 kts | 60° |
| 2026-04-18 10:30 | 52.34059 | 3.11655 | 15652 ft | 405 kts | 60° |
| 2026-04-18 10:30 | 52.35466 | 3.15622 | 15050 ft | 401 kts | 60° |
| 2026-04-18 10:31 | 52.36857 | 3.19551 | 14457 ft | 397 kts | 60° |
| 2026-04-18 10:31 | 52.38233 | 3.23442 | 13873 ft | 393 kts | 60° |
| 2026-04-18 10:31 | 52.39595 | 3.27301 | 13219 ft | 389 kts | 60° |
| 2026-04-18 10:31 | 52.40942 | 3.31123 | 12574 ft | 386 kts | 60° |
| 2026-04-18 10:32 | 52.42279 | 3.34917 | 11946 ft | 382 kts | 60° |
| 2026-04-18 10:32 | 52.43595 | 3.38664 | 11347 ft | 378 kts | 61° |
| 2026-04-18 10:32 | 52.44756 | 3.42499 | 10729 ft | 373 kts | 72° |
| 2026-04-18 10:32 | 52.45240 | 3.46618 | 10128 ft | 365 kts | 89° |
| 2026-04-18 10:33 | 52.45336 | 3.50707 | 9795 ft | 352 kts | 91° |
| 2026-04-18 10:33 | 52.45375 | 3.54640 | 9591 ft | 337 kts | 92° |
| 2026-04-18 10:33 | 52.45407 | 3.58398 | 9410 ft | 323 kts | 92° |
| 2026-04-18 10:33 | 52.45441 | 3.62005 | 9237 ft | 311 kts | 92° |
| 2026-04-18 10:34 | 52.45475 | 3.65516 | 8898 ft | 305 kts | 92° |
| 2026-04-18 10:34 | 52.45504 | 3.68981 | 8503 ft | 303 kts | 92° |
| 2026-04-18 10:34 | 52.45530 | 3.72414 | 8095 ft | 301 kts | 92° |
| 2026-04-18 10:34 | 52.45552 | 3.75850 | 7670 ft | 300 kts | 92° |
| 2026-04-18 10:35 | 52.45570 | 3.79260 | 7289 ft | 298 kts | 92° |
| 2026-04-18 10:35 | 52.45583 | 3.82641 | 7039 ft | 296 kts | 92° |
| 2026-04-18 10:35 | 52.45593 | 3.86019 | 6990 ft | 297 kts | 92° |
| 2026-04-18 10:35 | 52.45602 | 3.89403 | 6990 ft | 297 kts | 92° |
| 2026-04-18 10:36 | 52.45611 | 3.92785 | 6987 ft | 297 kts | 92° |
| 2026-04-18 10:36 | 52.45618 | 3.96181 | 6987 ft | 297 kts | 92° |
| 2026-04-18 10:36 | 52.45623 | 3.99567 | 6981 ft | 296 kts | 92° |
| 2026-04-18 10:36 | 52.45621 | 4.02937 | 6988 ft | 296 kts | 92° |
| 2026-04-18 10:37 | 52.45619 | 4.06265 | 6986 ft | 296 kts | 92° |
| 2026-04-18 10:37 | 52.45618 | 4.09676 | 6985 ft | 296 kts | 92° |
| 2026-04-18 10:37 | 52.45616 | 4.13051 | 6985 ft | 296 kts | 92° |
| 2026-04-18 10:37 | 52.45611 | 4.16381 | 6985 ft | 296 kts | 92° |
| 2026-04-18 10:38 | 52.45606 | 4.19792 | 6985 ft | 296 kts | 92° |
| 2026-04-18 10:38 | 52.45598 | 4.23166 | 6986 ft | 296 kts | 92° |
| 2026-04-18 10:38 | 52.45591 | 4.26499 | 6985 ft | 296 kts | 92° |
| 2026-04-18 10:38 | 52.45586 | 4.29872 | 6985 ft | 296 kts | 92° |
| 2026-04-18 10:39 | 52.45578 | 4.33240 | 6985 ft | 296 kts | 92° |
| 2026-04-18 10:39 | 52.45571 | 4.36613 | 6985 ft | 296 kts | 92° |
| 2026-04-18 10:39 | 52.45564 | 4.39983 | 6982 ft | 296 kts | 92° |
| 2026-04-18 10:39 | 52.45555 | 4.43348 | 6982 ft | 296 kts | 92° |
| 2026-04-18 10:40 | 52.45544 | 4.46726 | 6987 ft | 295 kts | 92° |
| 2026-04-18 10:40 | 52.45294 | 4.50052 | 6910 ft | 293 kts | 104° |
| 2026-04-18 10:40 | 52.44824 | 4.53308 | 6515 ft | 293 kts | 107° |
| 2026-04-18 10:40 | 52.44321 | 4.56529 | 6179 ft | 290 kts | 107° |
| 2026-04-18 10:41 | 52.43815 | 4.59731 | 5799 ft | 290 kts | 107° |
| 2026-04-18 10:41 | 52.43316 | 4.62915 | 5456 ft | 287 kts | 108° |
| 2026-04-18 10:41 | 52.42828 | 4.66074 | 5038 ft | 286 kts | 107° |
| 2026-04-18 10:41 | 52.42339 | 4.69227 | 4638 ft | 285 kts | 107° |
| 2026-04-18 10:42 | 52.41847 | 4.72361 | 4240 ft | 283 kts | 107° |
| 2026-04-18 10:42 | 52.41359 | 4.75478 | 3836 ft | 281 kts | 107° |
| 2026-04-18 10:42 | 52.40871 | 4.78570 | 3460 ft | 279 kts | 107° |
| 2026-04-18 10:42 | 52.40384 | 4.81625 | 3088 ft | 276 kts | 107° |
| 2026-04-18 10:43 | 52.39890 | 4.84643 | 2696 ft | 274 kts | 107° |
| 2026-04-18 10:43 | 52.39438 | 4.87650 | 2381 ft | 270 kts | 101° |
| 2026-04-18 10:43 | 52.39366 | 4.88528 | 2278 ft | 269 kts | 97° |
| 2026-04-18 10:43 | 52.39351 | 4.88781 | 2255 ft | 269 kts | 96° |
| 2026-04-18 10:44 | 52.39264 | 4.91377 | 2044 ft | 267 kts | 93° |
| 2026-04-18 10:44 | 52.39205 | 4.94418 | 1987 ft | 265 kts | 92° |
| 2026-04-18 10:44 | 52.39152 | 4.97342 | 1990 ft | 248 kts | 92° |
| 2026-04-18 10:44 | 52.39099 | 5.00089 | 1993 ft | 238 kts | 96° |
| 2026-04-18 10:45 | 52.38726 | 5.02697 | 2006 ft | 234 kts | 115° |
| 2026-04-18 10:45 | 52.37789 | 5.04797 | 1995 ft | 227 kts | 143° |
| 2026-04-18 10:45 | 52.36385 | 5.05798 | 1987 ft | 220 kts | 177° |
| 2026-04-18 10:45 | 52.34933 | 5.05687 | 1987 ft | 198 kts | 194° |
| 2026-04-18 10:46 | 52.33735 | 5.04900 | 1980 ft | 175 kts | 223° |
| 2026-04-18 10:46 | 52.33097 | 5.03358 | 1994 ft | 157 kts | 248° |
| 2026-04-18 10:46 | 52.32745 | 5.01716 | 1993 ft | 151 kts | 255° |
| 2026-04-18 10:46 | 52.32576 | 5.00030 | 1989 ft | 148 kts | 263° |
| 2026-04-18 10:47 | 52.32500 | 4.98450 | 1998 ft | 132 kts | 264° |
| 2026-04-18 10:47 | 52.32453 | 4.97350 | 1999 ft | 124 kts | 264° |
| 2026-04-18 10:47 | 52.32407 | 4.95983 | 2002 ft | 119 kts | 265° |
| 2026-04-18 10:47 | 52.32354 | 4.94626 | 1865 ft | 120 kts | 265° |
| 2026-04-18 10:48 | 52.32302 | 4.93267 | 1695 ft | 120 kts | 266° |
| 2026-04-18 10:48 | 52.32256 | 4.91900 | 1504 ft | 120 kts | 265° |
| 2026-04-18 10:48 | 52.32210 | 4.90549 | 1347 ft | 119 kts | 266° |
| 2026-04-18 10:48 | 52.32164 | 4.89208 | 1184 ft | 118 kts | 266° |
| 2026-04-18 10:49 | 52.32118 | 4.87870 | 1023 ft | 118 kts | 266° |
| 2026-04-18 10:49 | 52.32073 | 4.86533 | 857 ft | 118 kts | 266° |
| 2026-04-18 10:49 | 52.32027 | 4.85195 | 698 ft | 118 kts | 266° |
| 2026-04-18 10:49 | 52.31981 | 4.83861 | 541 ft | 118 kts | 266° |
| 2026-04-18 10:50 | 52.31935 | 4.82526 | 383 ft | 118 kts | 266° |
| 2026-04-18 10:50 | 52.31888 | 4.81195 | 206 ft | 116 kts | 264° |
| 2026-04-18 10:50 | 52.31836 | 4.79881 | 63 ft | 116 kts | 266° |
| 2026-04-18 10:50 | 52.31797 | 4.78614 | 20 ft | 97 kts | 267° |
| 2026-04-18 10:51 | 52.31766 | 4.77830 | 22 ft | 45 kts | 257° |
| 2026-04-18 10:51 | 52.31667 | 4.77525 | 18 ft | 17 kts | 237° |
| 2026-04-18 10:51 | 52.31639 | 4.77451 | 16 ft | 0 kts | 237° |
| 2026-04-18 10:51 | 52.31638 | 4.77450 | 16 ft | 1 kts | 237° |
| 2026-04-18 10:52 | 52.31618 | 4.77398 | 16 ft | 8 kts | 237° |
| 2026-04-18 10:52 | 52.31583 | 4.77301 | 14 ft | 12 kts | 245° |
| 2026-04-18 10:52 | 52.31512 | 4.77188 | 11 ft | 16 kts | 221° |
| 2026-04-18 10:52 | 52.31487 | 4.77075 | 11 ft | 17 kts | 264° |
| 2026-04-18 10:53 | 52.31480 | 4.76878 | 12 ft | 19 kts | 267° |
| 2026-04-18 10:53 | 52.31472 | 4.76655 | 14 ft | 20 kts | 267° |
| 2026-04-18 10:53 | 52.31464 | 4.76433 | 17 ft | 20 kts | 266° |
| 2026-04-18 10:53 | 52.31455 | 4.76191 | 17 ft | 22 kts | 266° |
| 2026-04-18 10:54 | 52.31447 | 4.75928 | 16 ft | 24 kts | 267° |
| 2026-04-18 10:54 | 52.31438 | 4.75637 | 14 ft | 27 kts | 266° |
| 2026-04-18 10:54 | 52.31416 | 4.75451 | 13 ft | 4 kts | 214° |
| 2026-04-18 10:54 | 52.31359 | 4.75421 | 11 ft | 10 kts | 229° |